Time;durP1;ratioP1;P1;durP2;ratioP2;P2;SDS_P1;SDS_P2;PMS_P1;PMS_P2;Temp;Humidity;BMP_temperature;BMP_pressure;BME280_temperature;BME280_humidity;BME280_pressure;Samples;Min_cycle;Max_cycle;Signal;HPM_P1;HPM_P2
2021/01/17 00:01:45;;;;;;;28.10;15.63;;;;;;;;;;5053034;28;20463;-51
2021/01/17 00:04:11;;;;;;;23.92;14.77;;;;;;;;;;5052834;28;20191;-52
2021/01/17 00:06:37;;;;;;;28.60;16.63;;;;;;;;;;5050626;28;20186;-51
2021/01/17 00:09:03;;;;;;;26.13;15.15;;;;;;;;;;5052896;28;20171;-52
2021/01/17 00:11:29;;;;;;;25.40;15.43;;;;;;;;;;5052784;28;20245;-51
2021/01/17 00:13:55;;;;;;;30.93;16.03;;;;;;;;;;5051455;28;20400;-51
2021/01/17 00:16:21;;;;;;;30.33;15.40;;;;;;;;;;5052455;28;20410;-49
2021/01/17 00:18:47;;;;;;;27.67;16.07;;;;;;;;;;5052415;28;20409;-49
2021/01/17 00:21:13;;;;;;;25.80;15.83;;;;;;;;;;5052593;28;20817;-49
2021/01/17 00:23:39;;;;;;;29.13;16.13;;;;;;;;;;5052306;28;20813;-49
2021/01/17 00:26:05;;;;;;;25.23;14.83;;;;;;;;;;5052261;28;20413;-49
2021/01/17 00:28:31;;;;;;;28.67;15.55;;;;;;;;;;5050760;28;20513;-50
2021/01/17 00:30:57;;;;;;;30.33;15.90;;;;;;;;;;5052429;28;20179;-49
2021/01/17 00:33:23;;;;;;;27.57;15.57;;;;;;;;;;5051957;28;20405;-50
2021/01/17 00:35:49;;;;;;;25.27;15.67;;;;;;;;;;5052182;28;20421;-49
2021/01/17 00:38:15;;;;;;;25.80;16.10;;;;;;;;;;5052098;28;20881;-50
2021/01/17 00:40:41;;;;;;;26.23;15.33;;;;;;;;;;5052185;28;20751;-52
2021/01/17 00:43:07;;;;;;;34.13;15.40;;;;;;;;;;5052080;28;20397;-52
2021/01/17 00:45:33;;;;;;;30.65;16.48;;;;;;;;;;5051539;28;20904;-52
2021/01/17 00:47:59;;;;;;;26.85;15.50;;;;;;;;;;5051942;28;20171;-51
2021/01/17 00:50:25;;;;;;;24.90;15.13;;;;;;;;;;5051870;28;20171;-49
2021/01/17 00:52:52;;;;;;;29.95;15.05;;;;;;;;;;5051927;28;20394;-52
2021/01/17 00:55:18;;;;;;;26.92;16.50;;;;;;;;;;5051403;28;20238;-50
2021/01/17 00:57:44;;;;;;;25.40;15.73;;;;;;;;;;5051779;28;20202;-49
2021/01/17 01:00:11;;;;;;;26.00;15.03;;;;;;;;;;5050623;28;20182;-50
2021/01/17 01:02:38;;;;;;;25.95;15.35;;;;;;;;;;5051607;28;20495;-50
2021/01/17 01:05:04;;;;;;;25.25;14.68;;;;;;;;;;5051493;28;20194;-50
2021/01/17 01:07:30;;;;;;;25.63;15.30;;;;;;;;;;5051430;28;20163;-51
2021/01/17 01:09:57;;;;;;;24.20;15.52;;;;;;;;;;5051432;28;20174;-49
2021/01/17 01:12:23;;;;;;;30.80;17.60;;;;;;;;;;5051593;28;20309;-51
2021/01/17 01:14:49;;;;;;;28.25;15.80;;;;;;;;;;5051258;28;20206;-50
2021/01/17 01:17:15;;;;;;;29.08;15.43;;;;;;;;;;5051053;28;20169;-51
2021/01/17 01:19:41;;;;;;;27.20;16.08;;;;;;;;;;5051487;28;20559;-50
2021/01/17 01:22:07;;;;;;;28.10;14.87;;;;;;;;;;5051341;28;20198;-51
2021/01/17 01:24:33;;;;;;;27.27;16.20;;;;;;;;;;5051290;28;20775;-52
2021/01/17 01:26:59;;;;;;;30.97;17.43;;;;;;;;;;5050930;28;20492;-52
2021/01/17 01:29:25;;;;;;;29.17;17.02;;;;;;;;;;5050228;28;20421;-52
2021/01/17 01:31:51;;;;;;;28.85;15.23;;;;;;;;;;5051038;28;20210;-51
2021/01/17 01:34:18;;;;;;;31.10;17.40;;;;;;;;;;5051003;28;20201;-51
2021/01/17 01:36:44;;;;;;;28.02;15.90;;;;;;;;;;5050757;28;20190;-50
2021/01/17 01:39:11;;;;;;;34.03;16.35;;;;;;;;;;5051178;28;20186;-50
2021/01/17 01:41:38;;;;;;;33.30;16.65;;;;;;;;;;5050201;28;20687;-49
2021/01/17 01:44:04;;;;;;;26.95;15.52;;;;;;;;;;5050969;28;20192;-50
2021/01/17 01:46:31;;;;;;;28.90;17.40;;;;;;;;;;5050677;28;20175;-50
2021/01/17 01:48:57;;;;;;;34.50;18.77;;;;;;;;;;5051266;28;20166;-50
2021/01/17 01:51:25;;;;;;;33.08;18.98;;;;;;;;;;5051191;28;20178;-53
2021/01/17 01:53:52;;;;;;;29.60;17.95;;;;;;;;;;5050838;28;20676;-49
2021/01/17 01:56:18;;;;;;;29.10;16.20;;;;;;;;;;5051023;28;20227;-49
2021/01/17 01:58:44;;;;;;;25.05;15.90;;;;;;;;;;5049871;28;20255;-50
2021/01/17 02:01:10;;;;;;;28.67;15.02;;;;;;;;;;5050536;28;20576;-50
2021/01/17 02:03:37;;;;;;;31.92;17.58;;;;;;;;;;5050026;28;20198;-50
2021/01/17 02:06:03;;;;;;;30.67;17.15;;;;;;;;;;5050102;28;20206;-48
2021/01/17 02:08:48;;;;;;;32.67;17.73;;;;;;;;;;5050721;28;20181;-50
2021/01/17 02:11:37;;;;;;;30.70;16.05;;;;;;;;;;5050664;28;20173;-50
2021/01/17 02:14:18;;;;;;;24.45;15.52;;;;;;;;;;5039944;28;20218;-50
2021/01/17 02:16:46;;;;;;;32.15;17.58;;;;;;;;;;5050426;28;20197;-49
2021/01/17 02:19:14;;;;;;;28.58;16.10;;;;;;;;;;5050452;28;20175;-50
2021/01/17 02:21:41;;;;;;;32.35;17.20;;;;;;;;;;5050494;28;20166;-49
2021/01/17 02:24:11;;;;;;;29.85;17.08;;;;;;;;;;5050564;28;20207;-49
2021/01/17 02:26:41;;;;;;;35.15;18.65;;;;;;;;;;5050398;28;20179;-52
2021/01/17 02:29:08;;;;;;;34.83;18.60;;;;;;;;;;5049310;28;20179;-50
2021/01/17 02:31:35;;;;;;;34.55;17.55;;;;;;;;;;5050504;28;20186;-49
2021/01/17 02:34:02;;;;;;;36.42;18.15;;;;;;;;;;5050121;28;20202;-51
2021/01/17 02:36:38;;;;;;;34.53;17.95;;;;;;;;;;5050152;28;20250;-50
2021/01/17 02:39:15;;;;;;;34.95;19.63;;;;;;;;;;5050327;28;20167;-49
2021/01/17 02:41:49;;;;;;;31.25;17.30;;;;;;;;;;5050457;28;20255;-50
2021/01/17 02:44:15;;;;;;;32.53;17.13;;;;;;;;;;5050178;28;20202;-50
2021/01/17 02:46:41;;;;;;;30.40;17.95;;;;;;;;;;5049980;28;20171;-50
2021/01/17 02:49:07;;;;;;;32.10;17.35;;;;;;;;;;5050548;28;20211;-50
2021/01/17 02:51:33;;;;;;;41.40;19.55;;;;;;;;;;5050987;28;20171;-50
2021/01/17 02:54:14;;;;;;;30.60;16.90;;;;;;;;;;5053937;28;20256;-50
2021/01/17 02:56:42;;;;;;;33.08;19.23;;;;;;;;;;5053751;28;20503;-52
2021/01/17 02:59:12;;;;;;;34.15;18.23;;;;;;;;;;5053164;28;20159;-50
2021/01/17 03:01:38;;;;;;;30.40;19.30;;;;;;;;;;5053339;28;20198;-50
2021/01/17 03:04:21;;;;;;;34.55;18.58;;;;;;;;;;5053931;28;20557;-52
2021/01/17 03:06:47;;;;;;;38.40;20.48;;;;;;;;;;5053606;28;20241;-49
2021/01/17 03:09:13;;;;;;;35.65;20.60;;;;;;;;;;5053875;28;20179;-50
2021/01/17 03:11:39;;;;;;;34.22;18.23;;;;;;;;;;5053646;28;20174;-52
2021/01/17 03:14:06;;;;;;;36.47;19.40;;;;;;;;;;5053673;28;20700;-50
2021/01/17 03:16:34;;;;;;;30.58;18.13;;;;;;;;;;5053402;28;20393;-49
2021/01/17 03:19:00;;;;;;;31.30;17.77;;;;;;;;;;5053826;28;20175;-50
2021/01/17 03:21:26;;;;;;;33.75;18.35;;;;;;;;;;5035896;28;20163;-51
2021/01/17 03:23:52;;;;;;;34.00;18.30;;;;;;;;;;5053505;28;20167;-52
2021/01/17 03:26:18;;;;;;;30.52;17.98;;;;;;;;;;5053104;28;20409;-50
2021/01/17 03:28:43;;;;;;;29.97;17.27;;;;;;;;;;5053499;28;20173;-50
2021/01/17 03:31:10;;;;;;;32.80;17.43;;;;;;;;;;5052462;28;20433;-50
2021/01/17 03:33:36;;;;;;;35.17;19.23;;;;;;;;;;5052384;28;20958;-50
2021/01/17 03:36:02;;;;;;;30.27;17.80;;;;;;;;;;5053107;28;20192;-50
2021/01/17 03:38:27;;;;;;;29.73;19.27;;;;;;;;;;5053216;28;20856;-51
2021/01/17 03:40:53;;;;;;;30.53;17.40;;;;;;;;;;5053209;28;20397;-51
2021/01/17 03:43:19;;;;;;;32.50;18.50;;;;;;;;;;5053080;28;20401;-49
2021/01/17 03:45:45;;;;;;;34.63;17.63;;;;;;;;;;5052903;28;20452;-49
2021/01/17 03:48:11;;;;;;;27.13;16.47;;;;;;;;;;5053098;28;20167;-50
2021/01/17 03:50:37;;;;;;;31.70;18.73;;;;;;;;;;5053173;28;20397;-50
2021/01/17 03:53:03;;;;;;;39.13;17.70;;;;;;;;;;5052963;28;20472;-49
2021/01/17 03:55:29;;;;;;;32.77;17.00;;;;;;;;;;5052508;28;20452;-50
2021/01/17 03:57:55;;;;;;;36.80;18.77;;;;;;;;;;5051828;28;20428;-50
2021/01/17 04:00:21;;;;;;;33.90;17.53;;;;;;;;;;5052985;28;20393;-50
2021/01/17 04:02:47;;;;;;;29.80;16.90;;;;;;;;;;5052245;28;20404;-52
2021/01/17 04:05:13;;;;;;;32.70;18.77;;;;;;;;;;5052392;28;20195;-50
2021/01/17 04:07:39;;;;;;;31.90;18.23;;;;;;;;;;5052911;28;20484;-50
2021/01/17 04:10:05;;;;;;;30.43;17.40;;;;;;;;;;5052786;28;20980;-51
2021/01/17 04:12:33;;;;;;;30.45;17.25;;;;;;;;;;5052955;28;20440;-50
2021/01/17 04:14:58;;;;;;;30.17;16.35;;;;;;;;;;5052931;28;20213;-49
2021/01/17 04:17:24;;;;;;;33.67;17.57;;;;;;;;;;5052715;28;20166;-50
2021/01/17 04:19:50;;;;;;;30.43;18.23;;;;;;;;;;5052714;28;20535;-49
2021/01/17 04:22:16;;;;;;;33.27;17.67;;;;;;;;;;5052607;28;20394;-50
2021/01/17 04:24:42;;;;;;;36.03;19.60;;;;;;;;;;5052368;28;20440;-49
2021/01/17 04:27:08;;;;;;;35.03;18.07;;;;;;;;;;5052283;28;20483;-50
2021/01/17 04:29:34;;;;;;;28.57;17.40;;;;;;;;;;5050485;28;20429;-50
2021/01/17 04:32:00;;;;;;;30.60;16.33;;;;;;;;;;5052371;28;20405;-50
2021/01/17 04:34:26;;;;;;;36.42;18.10;;;;;;;;;;5052023;28;20464;-50
2021/01/17 04:36:52;;;;;;;31.47;18.47;;;;;;;;;;5051953;28;20355;-50
2021/01/17 04:39:18;;;;;;;32.37;19.63;;;;;;;;;;5052181;28;20393;-51
2021/01/17 04:41:45;;;;;;;29.90;17.10;;;;;;;;;;5052173;28;20405;-50
2021/01/17 04:44:12;;;;;;;32.55;18.42;;;;;;;;;;5052044;28;20645;-51
2021/01/17 04:46:39;;;;;;;31.75;18.92;;;;;;;;;;5051726;28;20184;-52
2021/01/17 04:49:06;;;;;;;32.17;18.23;;;;;;;;;;5052085;28;20266;-50
2021/01/17 04:51:32;;;;;;;31.00;17.55;;;;;;;;;;5051880;28;20700;-50
2021/01/17 04:54:03;;;;;;;30.50;17.65;;;;;;;;;;5051899;28;20224;-50
2021/01/17 04:56:30;;;;;;;32.85;19.13;;;;;;;;;;5051489;28;20171;-51
2021/01/17 04:59:09;;;;;;;43.17;20.05;;;;;;;;;;5050800;28;20216;-50
2021/01/17 05:01:48;;;;;;;38.72;19.73;;;;;;;;;;5051709;28;20692;-52
2021/01/17 05:04:13;;;;;;;42.47;22.35;;;;;;;;;;5051586;28;20202;-51
2021/01/17 05:06:40;;;;;;;40.17;19.77;;;;;;;;;;5051284;28;20171;-51
2021/01/17 05:09:06;;;;;;;41.78;20.17;;;;;;;;;;5051832;28;20401;-52
2021/01/17 05:11:33;;;;;;;37.63;19.20;;;;;;;;;;5051495;28;20555;-51
2021/01/17 05:14:12;;;;;;;44.67;21.63;;;;;;;;;;5051343;28;20198;-53
2021/01/17 05:16:39;;;;;;;41.60;21.98;;;;;;;;;;5051066;28;20171;-51
2021/01/17 05:19:06;;;;;;;39.88;19.55;;;;;;;;;;5051559;28;20254;-52
2021/01/17 05:21:33;;;;;;;40.70;20.83;;;;;;;;;;5051472;28;20159;-51
2021/01/17 05:24:03;;;;;;;39.95;20.38;;;;;;;;;;5051424;28;20195;-51
2021/01/17 05:26:29;;;;;;;43.22;20.00;;;;;;;;;;5051145;28;20245;-52
2021/01/17 05:28:55;;;;;;;35.43;20.13;;;;;;;;;;5050263;28;20740;-52
2021/01/17 05:31:24;;;;;;;46.22;21.08;;;;;;;;;;5051299;28;20405;-52
2021/01/17 05:33:50;;;;;;;43.97;20.60;;;;;;;;;;5051039;28;20190;-51
2021/01/17 05:36:16;;;;;;;37.60;18.73;;;;;;;;;;5051063;28;20163;-52
2021/01/17 05:38:42;;;;;;;41.03;22.15;;;;;;;;;;5051174;28;20257;-52
2021/01/17 05:41:24;;;;;;;42.27;21.13;;;;;;;;;;5051259;28;20676;-52
2021/01/17 05:43:50;;;;;;;41.33;20.77;;;;;;;;;;5051120;28;20397;-51
2021/01/17 05:46:16;;;;;;;36.58;20.38;;;;;;;;;;5051461;28;20174;-52
2021/01/17 05:48:42;;;;;;;40.80;19.65;;;;;;;;;;5051173;28;20634;-52
2021/01/17 05:51:08;;;;;;;41.63;19.50;;;;;;;;;;5051166;28;20170;-51
2021/01/17 05:53:34;;;;;;;42.20;20.77;;;;;;;;;;5050933;28;20767;-51
2021/01/17 05:56:15;;;;;;;45.30;21.70;;;;;;;;;;5050520;28;20444;-51
2021/01/17 05:58:44;;;;;;;51.17;22.35;;;;;;;;;;5049947;28;20824;-53
2021/01/17 06:01:17;;;;;;;47.00;22.15;;;;;;;;;;5050943;28;20175;-51
2021/01/17 06:03:53;;;;;;;46.25;22.85;;;;;;;;;;5050771;28;20179;-52
2021/01/17 06:06:29;;;;;;;43.53;20.50;;;;;;;;;;5050634;28;20197;-52
2021/01/17 06:08:56;;;;;;;43.53;21.10;;;;;;;;;;5050606;28;20174;-52
2021/01/17 06:11:22;;;;;;;42.60;20.85;;;;;;;;;;5050981;28;20178;-50
2021/01/17 06:13:56;;;;;;;43.58;20.27;;;;;;;;;;5050833;28;20198;-51
2021/01/17 06:16:22;;;;;;;45.58;20.75;;;;;;;;;;5050267;28;20159;-51
2021/01/17 06:18:58;;;;;;;43.33;22.92;;;;;;;;;;5050731;28;20672;-50
2021/01/17 06:21:25;;;;;;;42.47;19.65;;;;;;;;;;5050524;28;20238;-51
2021/01/17 06:23:58;;;;;;;40.47;19.90;;;;;;;;;;5050500;28;20608;-53
2021/01/17 06:26:25;;;;;;;49.00;22.38;;;;;;;;;;5050917;28;20653;-52
2021/01/17 06:28:51;;;;;;;47.17;21.42;;;;;;;;;;5053807;28;20174;-52
2021/01/17 06:31:22;;;;;;;44.05;22.77;;;;;;;;;;5054662;28;20182;-51
2021/01/17 06:33:49;;;;;;;42.17;21.95;;;;;;;;;;5054501;28;20681;-51
2021/01/17 06:36:16;;;;;;;48.60;21.17;;;;;;;;;;5054328;28;20170;-52
2021/01/17 06:38:43;;;;;;;48.08;22.45;;;;;;;;;;5054670;28;20217;-52
2021/01/17 06:41:09;;;;;;;45.10;21.17;;;;;;;;;;5054643;28;20167;-51
2021/01/17 06:43:44;;;;;;;46.40;22.65;;;;;;;;;;5054496;28;20163;-51
2021/01/17 06:46:11;;;;;;;45.42;22.15;;;;;;;;;;5053944;28;20169;-51
2021/01/17 06:48:38;;;;;;;51.33;23.55;;;;;;;;;;5054365;28;20650;-51
2021/01/17 06:51:16;;;;;;;58.53;22.48;;;;;;;;;;5054303;28;20170;-52
2021/01/17 06:53:51;;;;;;;50.45;22.00;;;;;;;;;;5053877;28;20208;-51
2021/01/17 06:56:19;;;;;;;45.35;21.75;;;;;;;;;;5053855;28;20182;-51
2021/01/17 06:58:45;;;;;;;53.35;22.10;;;;;;;;;;5053186;28;20183;-51
2021/01/17 07:01:11;;;;;;;49.78;23.10;;;;;;;;;;5054137;28;20253;-51
2021/01/17 07:03:55;;;;;;;55.07;23.10;;;;;;;;;;5054116;28;20261;-51
2021/01/17 07:06:40;;;;;;;53.20;23.98;;;;;;;;;;5054094;28;20765;-52
2021/01/17 07:09:09;;;;;;;52.40;24.55;;;;;;;;;;5054304;28;20189;-52
2021/01/17 07:11:55;;;;;;;50.30;22.83;;;;;;;;;;5054708;28;20175;-50
2021/01/17 07:14:26;;;;;;;53.60;23.70;;;;;;;;;;5054234;28;20317;-53
2021/01/17 07:16:54;;;;;;;47.78;24.05;;;;;;;;;;5053827;28;20206;-51
2021/01/17 07:19:21;;;;;;;49.17;23.08;;;;;;;;;;5054019;28;20167;-53
2021/01/17 07:21:50;;;;;;;51.38;24.30;;;;;;;;;;5053900;28;20175;-52
2021/01/17 07:24:16;;;;;;;53.17;23.38;;;;;;;;;;5053704;28;20662;-50
2021/01/17 07:26:49;;;;;;;56.35;24.17;;;;;;;;;;5053585;28;20167;-51
2021/01/17 07:29:16;;;;;;;51.60;23.15;;;;;;;;;;5051799;28;20210;-52
2021/01/17 07:31:43;;;;;;;51.78;24.70;;;;;;;;;;5053700;28;20190;-50
2021/01/17 07:34:12;;;;;;;52.55;22.85;;;;;;;;;;5053285;28;20202;-52
2021/01/17 07:36:47;;;;;;;61.13;24.77;;;;;;;;;;5052468;28;20163;-51
2021/01/17 07:39:16;;;;;;;57.13;24.00;;;;;;;;;;5051453;28;20641;-52
2021/01/17 07:41:46;;;;;;;58.45;24.02;;;;;;;;;;5052687;28;20167;-50
2021/01/17 07:44:15;;;;;;;44.35;21.95;;;;;;;;;;5052804;28;20193;-51
2021/01/17 07:46:42;;;;;;;52.25;23.30;;;;;;;;;;5052382;28;20256;-52
2021/01/17 07:49:10;;;;;;;55.00;23.20;;;;;;;;;;5052636;28;20193;-53
2021/01/17 07:51:37;;;;;;;52.72;23.30;;;;;;;;;;5053191;28;20224;-53
2021/01/17 07:54:09;;;;;;;49.15;23.15;;;;;;;;;;5052543;28;20244;-51
2021/01/17 07:56:37;;;;;;;47.92;23.40;;;;;;;;;;5052331;28;20182;-52
2021/01/17 07:59:04;;;;;;;53.08;24.08;;;;;;;;;;5051536;28;20186;-52
2021/01/17 08:01:40;;;;;;;61.25;25.45;;;;;;;;;;5052425;28;20173;-51
2021/01/17 08:04:06;;;;;;;47.05;22.25;;;;;;;;;;5052781;28;20198;-53
2021/01/17 08:06:35;;;;;;;53.77;26.43;;;;;;;;;;5052735;28;20250;-51
2021/01/17 08:09:01;;;;;;;57.75;24.38;;;;;;;;;;5052824;28;20447;-53
2021/01/17 08:11:42;;;;;;;58.03;23.00;;;;;;;;;;5052644;28;20248;-52
2021/01/17 08:14:27;;;;;;;47.78;22.20;;;;;;;;;;5052738;28;20276;-51
2021/01/17 08:17:03;;;;;;;57.17;24.25;;;;;;;;;;5052556;28;20666;-50
2021/01/17 08:19:39;;;;;;;48.45;21.40;;;;;;;;;;5052917;28;20162;-51
2021/01/17 08:22:17;;;;;;;52.63;22.55;;;;;;;;;;5052661;28;20167;-51
2021/01/17 08:24:47;;;;;;;62.13;24.83;;;;;;;;;;5052745;28;20259;-52
2021/01/17 08:27:33;;;;;;;50.38;23.63;;;;;;;;;;5052498;28;20175;-51
2021/01/17 08:30:02;;;;;;;62.78;25.98;;;;;;;;;;5051720;28;20183;-52
2021/01/17 08:32:31;;;;;;;51.38;22.08;;;;;;;;;;5052731;28;20270;-52
2021/01/17 08:34:57;;;;;;;53.08;24.15;;;;;;;;;;5052568;28;20260;-51
2021/01/17 08:37:23;;;;;;;52.33;23.37;;;;;;;;;;5052228;28;20179;-52
2021/01/17 08:39:54;;;;;;;57.50;22.92;;;;;;;;;;5052576;28;20401;-51
2021/01/17 08:42:47;;;;;;;45.88;21.45;;;;;;;;;;5052221;28;20167;-53
2021/01/17 08:45:19;;;;;;;47.42;22.35;;;;;;;;;;5050167;28;20218;-49
2021/01/17 08:47:45;;;;;;;46.58;22.60;;;;;;;;;;5052006;28;20173;-52
2021/01/17 08:50:27;;;;;;;48.60;22.65;;;;;;;;;;5051600;28;20171;-51
2021/01/17 08:52:53;;;;;;;41.80;20.65;;;;;;;;;;5051787;28;20182;-51
2021/01/17 08:55:40;;;;;;;51.15;23.45;;;;;;;;;;5051435;28;20206;-50
2021/01/17 08:58:06;;;;;;;52.67;23.15;;;;;;;;;;5044739;28;20187;-51
2021/01/17 09:00:50;;;;;;;52.00;23.27;;;;;;;;;;5050937;28;20574;-52
2021/01/17 09:03:25;;;;;;;48.33;22.52;;;;;;;;;;5051948;28;20186;-51
2021/01/17 09:05:52;;;;;;;51.50;22.60;;;;;;;;;;5051731;28;20189;-50
2021/01/17 09:08:19;;;;;;;54.03;22.95;;;;;;;;;;5051988;28;20177;-52
2021/01/17 09:10:45;;;;;;;52.45;23.02;;;;;;;;;;5052027;28;20198;-52
2021/01/17 09:13:25;;;;;;;49.92;23.23;;;;;;;;;;5051901;28;20159;-52
2021/01/17 09:15:54;;;;;;;53.60;23.67;;;;;;;;;;5051832;28;20205;-52
2021/01/17 09:18:24;;;;;;;52.42;22.67;;;;;;;;;;5051723;28;20170;-52
2021/01/17 09:20:51;;;;;;;42.05;22.20;;;;;;;;;;5052087;28;20171;-51
2021/01/17 09:23:18;;;;;;;46.55;21.00;;;;;;;;;;5051286;28;20167;-51
2021/01/17 09:25:45;;;;;;;43.97;21.45;;;;;;;;;;5049919;28;20201;-51
2021/01/17 09:28:11;;;;;;;47.08;21.50;;;;;;;;;;5050722;28;20170;-52
2021/01/17 09:30:37;;;;;;;52.47;22.30;;;;;;;;;;5050590;28;20178;-53
2021/01/17 09:33:04;;;;;;;47.35;23.20;;;;;;;;;;5051675;28;20174;-52
2021/01/17 09:35:30;;;;;;;47.45;21.67;;;;;;;;;;5051000;28;20252;-52
2021/01/17 09:37:59;;;;;;;45.97;19.90;;;;;;;;;;5051411;28;20174;-52
2021/01/17 09:40:25;;;;;;;44.42;20.40;;;;;;;;;;5051192;28;20167;-52
2021/01/17 09:42:54;;;;;;;43.75;21.25;;;;;;;;;;5051150;28;20171;-52
2021/01/17 09:45:20;;;;;;;42.55;20.45;;;;;;;;;;5050755;28;20202;-52
2021/01/17 09:47:46;;;;;;;41.33;21.55;;;;;;;;;;5050897;28;20229;-52
2021/01/17 09:50:12;;;;;;;44.23;20.73;;;;;;;;;;5050885;28;20178;-52
2021/01/17 09:52:41;;;;;;;49.63;21.98;;;;;;;;;;5051162;28;20409;-52
2021/01/17 09:55:08;;;;;;;42.85;20.10;;;;;;;;;;5050489;28;20225;-51
2021/01/17 09:57:37;;;;;;;55.28;24.52;;;;;;;;;;5050783;28;20263;-52
2021/01/17 10:00:06;;;;;;;45.65;21.75;;;;;;;;;;5049594;28;20527;-52
2021/01/17 10:02:32;;;;;;;45.25;20.58;;;;;;;;;;5050427;28;20216;-52
2021/01/17 10:04:58;;;;;;;51.08;23.70;;;;;;;;;;5051056;28;20221;-53
2021/01/17 10:07:24;;;;;;;47.95;21.52;;;;;;;;;;5050554;28;20163;-52
2021/01/17 10:09:51;;;;;;;39.58;19.50;;;;;;;;;;5050905;28;20198;-52
2021/01/17 10:12:21;;;;;;;45.65;22.08;;;;;;;;;;5050785;28;20183;-52
2021/01/17 10:14:47;;;;;;;46.83;21.38;;;;;;;;;;5050814;28;20214;-52
2021/01/17 10:17:13;;;;;;;40.20;20.52;;;;;;;;;;5050237;28;20316;-53
2021/01/17 10:19:40;;;;;;;44.33;20.13;;;;;;;;;;5050701;28;20177;-53
2021/01/17 10:22:09;;;;;;;44.13;20.40;;;;;;;;;;5050555;28;20160;-52
2021/01/17 10:24:36;;;;;;;44.13;20.30;;;;;;;;;;5050545;28;20642;-51
2021/01/17 10:27:03;;;;;;;40.83;19.17;;;;;;;;;;5050176;28;20252;-52
2021/01/17 10:29:30;;;;;;;43.58;19.95;;;;;;;;;;5049680;28;20236;-52
2021/01/17 10:31:58;;;;;;;46.22;20.88;;;;;;;;;;5050757;28;20175;-51
2021/01/17 10:34:24;;;;;;;43.05;20.30;;;;;;;;;;5050521;28;20210;-50
2021/01/17 10:36:54;;;;;;;42.38;19.85;;;;;;;;;;5050414;28;20164;-52
2021/01/17 10:39:20;;;;;;;43.38;20.58;;;;;;;;;;5050542;28;20547;-52
2021/01/17 10:41:46;;;;;;;42.53;19.70;;;;;;;;;;5050529;28;20170;-52
2021/01/17 10:44:15;;;;;;;33.13;19.35;;;;;;;;;;5050254;28;20472;-53
2021/01/17 10:46:45;;;;;;;37.70;19.90;;;;;;;;;;5050027;28;20175;-52
2021/01/17 10:49:15;;;;;;;39.15;18.13;;;;;;;;;;5049158;28;20243;-52
2021/01/17 10:51:43;;;;;;;35.42;19.20;;;;;;;;;;5050763;28;20175;-53
2021/01/17 10:54:10;;;;;;;40.53;19.60;;;;;;;;;;5050451;28;20265;-51
2021/01/17 10:56:37;;;;;;;32.88;17.75;;;;;;;;;;5049938;28;20168;-52
2021/01/17 10:59:09;;;;;;;38.67;18.52;;;;;;;;;;5049433;28;20681;-51
2021/01/17 11:01:35;;;;;;;38.63;17.42;;;;;;;;;;5050283;28;20165;-49
2021/01/17 11:04:01;;;;;;;39.93;17.33;;;;;;;;;;5049960;28;20218;-49
2021/01/17 11:06:28;;;;;;;32.85;17.60;;;;;;;;;;5049407;28;20426;-49
2021/01/17 11:08:55;;;;;;;33.20;16.20;;;;;;;;;;5049997;28;20175;-49
2021/01/17 11:11:30;;;;;;;37.60;19.90;;;;;;;;;;5049704;28;20169;-49
2021/01/17 11:13:58;;;;;;;35.65;19.35;;;;;;;;;;5052457;28;20271;-52
2021/01/17 11:16:43;;;;;;;31.45;17.45;;;;;;;;;;5053270;28;20168;-49
2021/01/17 11:19:18;;;;;;;36.35;18.33;;;;;;;;;;5053443;28;20174;-50
2021/01/17 11:21:45;;;;;;;38.33;18.38;;;;;;;;;;5053409;28;20161;-49
2021/01/17 11:24:12;;;;;;;38.47;17.88;;;;;;;;;;5053514;28;20281;-50
2021/01/17 11:26:38;;;;;;;33.15;17.98;;;;;;;;;;5053205;28;20168;-51
2021/01/17 11:29:06;;;;;;;31.52;17.20;;;;;;;;;;5052625;28;20222;-50
2021/01/17 11:31:34;;;;;;;40.55;18.33;;;;;;;;;;5049561;28;20307;-49
2021/01/17 11:34:00;;;;;;;34.03;18.80;;;;;;;;;;5042568;28;20718;-52
2021/01/17 11:36:26;;;;;;;37.63;18.53;;;;;;;;;;5032910;28;20244;-52
2021/01/17 11:38:54;;;;;;;29.67;16.20;;;;;;;;;;5032924;28;20399;-49
2021/01/17 11:41:22;;;;;;;40.10;18.95;;;;;;;;;;5033265;28;20251;-51
2021/01/17 11:43:48;;;;;;;33.72;19.08;;;;;;;;;;5033137;28;20183;-50
2021/01/17 11:46:15;;;;;;;32.17;16.88;;;;;;;;;;5032665;28;20189;-50
2021/01/17 11:48:42;;;;;;;35.15;18.73;;;;;;;;;;5033098;28;20702;-49
2021/01/17 11:51:08;;;;;;;33.47;17.00;;;;;;;;;;5033338;28;20182;-49
2021/01/17 11:53:35;;;;;;;37.00;17.08;;;;;;;;;;5033119;28;20217;-49
2021/01/17 11:56:01;;;;;;;35.28;16.90;;;;;;;;;;5032654;28;21001;-49
2021/01/17 11:58:28;;;;;;;36.65;16.58;;;;;;;;;;5040016;28;20210;-50
2021/01/17 12:00:58;;;;;;;35.25;18.00;;;;;;;;;;5052633;28;20157;-49
2021/01/17 12:03:35;;;;;;;33.50;16.95;;;;;;;;;;5052803;28;20763;-49
2021/01/17 12:06:02;;;;;;;35.03;16.98;;;;;;;;;;5052434;28;20201;-49
2021/01/17 12:08:46;;;;;;;32.53;16.05;;;;;;;;;;5052754;28;20176;-52
2021/01/17 12:11:12;;;;;;;32.42;16.83;;;;;;;;;;5056256;28;20225;-49
2021/01/17 12:13:38;;;;;;;33.20;17.15;;;;;;;;;;5040771;28;20181;-49
2021/01/17 12:16:07;;;;;;;34.50;16.83;;;;;;;;;;5033421;28;20192;-55
2021/01/17 12:18:36;;;;;;;34.03;17.42;;;;;;;;;;5031132;28;20482;-51
2021/01/17 12:21:03;;;;;;;34.92;16.65;;;;;;;;;;5033417;28;20252;-53
2021/01/17 12:23:29;;;;;;;27.98;16.13;;;;;;;;;;5049819;28;20215;-49
2021/01/17 12:25:55;;;;;;;30.83;17.05;;;;;;;;;;5051578;28;20757;-49
2021/01/17 12:28:21;;;;;;;29.30;15.53;;;;;;;;;;5051041;28;20176;-49
2021/01/17 12:30:47;;;;;;;31.97;16.60;;;;;;;;;;5032284;28;20419;-49
2021/01/17 12:33:13;;;;;;;30.70;17.87;;;;;;;;;;5035097;28;20450;-52
2021/01/17 12:35:40;;;;;;;29.90;16.27;;;;;;;;;;5015243;28;20468;-51
2021/01/17 12:38:05;;;;;;;34.00;16.87;;;;;;;;;;5031987;28;20325;-51
2021/01/17 12:40:31;;;;;;;35.07;17.80;;;;;;;;;;5032059;28;20868;-52
2021/01/17 12:42:57;;;;;;;29.87;16.40;;;;;;;;;;5032624;28;20885;-50
2021/01/17 12:45:23;;;;;;;37.90;16.60;;;;;;;;;;5031247;28;20862;-49
2021/01/17 12:47:49;;;;;;;33.72;17.30;;;;;;;;;;5035144;28;20472;-49
2021/01/17 12:50:15;;;;;;;33.13;16.58;;;;;;;;;;5051424;28;20181;-49
2021/01/17 12:52:44;;;;;;;38.03;18.53;;;;;;;;;;5051638;28;20180;-51
2021/01/17 12:55:10;;;;;;;37.88;17.67;;;;;;;;;;5033951;28;20515;-50
2021/01/17 12:57:37;;;;;;;34.53;18.10;;;;;;;;;;5031318;28;20174;-50
2021/01/17 13:00:04;;;;;;;39.13;19.35;;;;;;;;;;5039562;28;20183;-52
2021/01/17 13:02:30;;;;;;;38.60;18.98;;;;;;;;;;5051647;28;20270;-50
2021/01/17 13:04:55;;;;;;;36.33;17.13;;;;;;;;;;5033685;28;20684;-50
2021/01/17 13:07:21;;;;;;;37.30;18.60;;;;;;;;;;5051230;28;20499;-50
2021/01/17 13:09:47;;;;;;;37.70;17.93;;;;;;;;;;5051556;28;20423;-51
2021/01/17 13:12:13;;;;;;;44.97;19.13;;;;;;;;;;5051484;28;20420;-50
2021/01/17 13:14:39;;;;;;;43.63;18.20;;;;;;;;;;5032703;28;20546;-51
2021/01/17 13:17:06;;;;;;;35.40;18.17;;;;;;;;;;5051171;28;20703;-52
2021/01/17 13:19:32;;;;;;;47.90;19.63;;;;;;;;;;5051256;28;20911;-50
2021/01/17 13:21:58;;;;;;;46.90;21.67;;;;;;;;;;5051291;28;20165;-50
2021/01/17 13:24:23;;;;;;;43.50;18.60;;;;;;;;;;5051150;28;20431;-52
2021/01/17 13:26:53;;;;;;;54.37;20.33;;;;;;;;;;5051215;28;20524;-52
2021/01/17 13:29:19;;;;;;;39.10;19.80;;;;;;;;;;5051400;28;20414;-49
2021/01/17 13:31:45;;;;;;;46.50;19.17;;;;;;;;;;5051523;28;20250;-50
2021/01/17 13:34:11;;;;;;;40.38;17.92;;;;;;;;;;5050870;28;20523;-51
2021/01/17 13:36:37;;;;;;;47.23;21.33;;;;;;;;;;5050456;28;20173;-49
2021/01/17 13:39:03;;;;;;;46.80;20.77;;;;;;;;;;5050928;28;20397;-50
2021/01/17 13:41:29;;;;;;;52.23;20.87;;;;;;;;;;5049604;28;20441;-50
2021/01/17 13:43:55;;;;;;;51.90;20.80;;;;;;;;;;5050532;28;20418;-50
2021/01/17 13:46:21;;;;;;;45.37;19.33;;;;;;;;;;5050476;28;20404;-51
2021/01/17 13:48:47;;;;;;;51.20;20.17;;;;;;;;;;5050632;28;20411;-53
2021/01/17 13:51:13;;;;;;;63.45;21.05;;;;;;;;;;5050274;28;20399;-50
2021/01/17 13:53:39;;;;;;;52.85;20.67;;;;;;;;;;5050767;28;20259;-53
2021/01/17 13:56:05;;;;;;;62.97;21.90;;;;;;;;;;5049974;28;20296;-50
2021/01/17 13:58:31;;;;;;;42.38;19.42;;;;;;;;;;5050439;28;20169;-52
2021/01/17 14:00:57;;;;;;;46.42;19.95;;;;;;;;;;5050707;28;20166;-50
2021/01/17 14:03:23;;;;;;;52.53;22.70;;;;;;;;;;5050498;28;20223;-50
2021/01/17 14:05:49;;;;;;;40.03;18.38;;;;;;;;;;5050126;28;20415;-50
2021/01/17 14:08:15;;;;;;;57.27;22.07;;;;;;;;;;5049459;28;20186;-50
2021/01/17 14:10:41;;;;;;;50.30;21.13;;;;;;;;;;5050634;28;20399;-51
2021/01/17 14:13:06;;;;;;;53.40;20.17;;;;;;;;;;5050581;28;20485;-52
2021/01/17 14:15:32;;;;;;;50.80;21.60;;;;;;;;;;5049926;28;20468;-50
2021/01/17 14:17:59;;;;;;;49.73;21.10;;;;;;;;;;5050328;28;21086;-50
2021/01/17 14:20:26;;;;;;;56.90;20.50;;;;;;;;;;5050163;28;21072;-50
2021/01/17 14:22:52;;;;;;;47.70;20.58;;;;;;;;;;5050384;28;20191;-52